sensor_id;sensor_type;location;lat;lon;timestamp;temperature;humidity
4564;DHT22;2294;51.818;8.484;2023-05-18T02:53:20;5.60;99.90
4564;DHT22;2294;51.818;8.484;2023-05-18T02:55:47;5.30;99.90
4564;DHT22;2294;51.818;8.484;2023-05-18T02:58:18;5.20;99.90
4564;DHT22;2294;51.818;8.484;2023-05-18T03:00:47;5.30;99.90
4564;DHT22;2294;51.818;8.484;2023-05-18T03:03:16;5.40;99.90
4564;DHT22;2294;51.818;8.484;2023-05-18T03:05:43;5.30;99.90
4564;DHT22;2294;51.818;8.484;2023-05-18T03:08:10;5.50;99.90
4564;DHT22;2294;51.818;8.484;2023-05-18T03:10:38;5.50;99.90
4564;DHT22;2294;51.818;8.484;2023-05-18T03:13:05;5.50;99.90
4564;DHT22;2294;51.818;8.484;2023-05-18T03:15:32;5.50;99.90
4564;DHT22;2294;51.818;8.484;2023-05-18T03:17:59;5.50;99.90
4564;DHT22;2294;51.818;8.484;2023-05-18T03:20:26;5.40;99.90
4564;DHT22;2294;51.818;8.484;2023-05-18T03:22:54;5.40;99.90
4564;DHT22;2294;51.818;8.484;2023-05-18T03:25:21;5.50;99.90
4564;DHT22;2294;51.818;8.484;2023-05-18T03:27:51;5.40;99.90
4564;DHT22;2294;51.818;8.484;2023-05-18T03:30:18;5.20;99.90
4564;DHT22;2294;51.818;8.484;2023-05-18T03:32:45;5.30;99.90
4564;DHT22;2294;51.818;8.484;2023-05-18T03:35:12;5.30;99.90
4564;DHT22;2294;51.818;8.484;2023-05-18T03:37:39;5.40;99.90
4564;DHT22;2294;51.818;8.484;2023-05-18T06:22:46;8.50;99.90
4564;DHT22;2294;51.818;8.484;2023-05-18T06:25:13;8.30;99.90
4564;DHT22;2294;51.818;8.484;2023-05-18T06:27:40;8.50;99.90
4564;DHT22;2294;51.818;8.484;2023-05-18T06:30:09;8.50;99.90
4564;DHT22;2294;51.818;8.484;2023-05-18T06:32:36;8.40;99.90
4564;DHT22;2294;51.818;8.484;2023-05-18T06:35:04;8.20;99.90
4564;DHT22;2294;51.818;8.484;2023-05-18T06:37:33;8.40;99.90
4564;DHT22;2294;51.818;8.484;2023-05-18T06:40:00;8.50;99.90
4564;DHT22;2294;51.818;8.484;2023-05-18T06:42:27;8.80;99.90
4564;DHT22;2294;51.818;8.484;2023-05-18T06:44:54;8.60;99.90
4564;DHT22;2294;51.818;8.484;2023-05-18T06:47:21;8.60;99.90
4564;DHT22;2294;51.818;8.484;2023-05-18T06:49:48;8.80;99.90
4564;DHT22;2294;51.818;8.484;2023-05-18T06:52:15;9.10;99.90
4564;DHT22;2294;51.818;8.484;2023-05-18T06:54:44;9.10;99.90
4564;DHT22;2294;51.818;8.484;2023-05-18T06:57:11;9.10;99.90
4564;DHT22;2294;51.818;8.484;2023-05-18T06:59:37;9.00;99.90
4564;DHT22;2294;51.818;8.484;2023-05-18T07:02:05;9.00;99.90
4564;DHT22;2294;51.818;8.484;2023-05-18T07:04:32;9.00;99.90
4564;DHT22;2294;51.818;8.484;2023-05-18T07:06:59;9.00;99.90
4564;DHT22;2294;51.818;8.484;2023-05-18T07:09:26;9.00;99.90
4564;DHT22;2294;51.818;8.484;2023-05-18T07:11:54;9.10;99.90
4564;DHT22;2294;51.818;8.484;2023-05-18T07:14:21;9.00;99.90
4564;DHT22;2294;51.818;8.484;2023-05-18T07:16:48;9.10;99.90
4564;DHT22;2294;51.818;8.484;2023-05-18T07:19:15;9.20;99.90
4564;DHT22;2294;51.818;8.484;2023-05-18T07:21:42;9.20;99.90
4564;DHT22;2294;51.818;8.484;2023-05-18T07:24:09;9.20;99.90
4564;DHT22;2294;51.818;8.484;2023-05-18T07:26:35;9.20;99.90
4564;DHT22;2294;51.818;8.484;2023-05-18T07:29:04;9.50;99.90
4564;DHT22;2294;51.818;8.484;2023-05-18T07:31:31;9.30;99.90
4564;DHT22;2294;51.818;8.484;2023-05-18T07:33:58;9.20;99.90
4564;DHT22;2294;51.818;8.484;2023-05-18T07:36:25;9.30;99.90
4564;DHT22;2294;51.818;8.484;2023-05-18T07:38:53;9.40;99.90
4564;DHT22;2294;51.818;8.484;2023-05-18T07:41:21;9.50;99.90
4564;DHT22;2294;51.818;8.484;2023-05-18T07:43:48;9.50;99.90
4564;DHT22;2294;51.818;8.484;2023-05-18T07:46:16;9.50;34.80
4564;DHT22;2294;51.818;8.484;2023-05-18T07:48:43;9.60;99.90
4564;DHT22;2294;51.818;8.484;2023-05-18T07:51:11;9.70;99.90
4564;DHT22;2294;51.818;8.484;2023-05-18T07:53:38;9.80;26.00
4564;DHT22;2294;51.818;8.484;2023-05-18T07:56:05;9.80;1.00
4564;DHT22;2294;51.818;8.484;2023-05-18T07:58:33;9.70;99.90
4564;DHT22;2294;51.818;8.484;2023-05-18T08:01:00;9.70;99.90
4564;DHT22;2294;51.818;8.484;2023-05-18T08:03:28;9.90;1.00
4564;DHT22;2294;51.818;8.484;2023-05-18T08:05:55;10.10;52.90
4564;DHT22;2294;51.818;8.484;2023-05-18T08:08:22;10.20;1.00
4564;DHT22;2294;51.818;8.484;2023-05-18T08:10:50;10.30;1.00
4564;DHT22;2294;51.818;8.484;2023-05-18T08:13:17;10.20;99.90
4564;DHT22;2294;51.818;8.484;2023-05-18T08:15:44;10.10;1.00
4564;DHT22;2294;51.818;8.484;2023-05-18T08:18:11;10.00;1.00
4564;DHT22;2294;51.818;8.484;2023-05-18T08:20:39;10.40;99.90
4564;DHT22;2294;51.818;8.484;2023-05-18T08:23:06;10.60;99.90
4564;DHT22;2294;51.818;8.484;2023-05-18T08:25:33;10.70;99.90
4564;DHT22;2294;51.818;8.484;2023-05-18T08:28:00;10.90;1.00
4564;DHT22;2294;51.818;8.484;2023-05-18T08:30:27;11.00;99.90
4564;DHT22;2294;51.818;8.484;2023-05-18T08:32:54;11.00;76.60
4564;DHT22;2294;51.818;8.484;2023-05-18T08:35:21;10.90;81.30
4564;DHT22;2294;51.818;8.484;2023-05-18T08:37:49;10.90;1.00
4564;DHT22;2294;51.818;8.484;2023-05-18T08:40:16;10.90;1.00
4564;DHT22;2294;51.818;8.484;2023-05-18T08:42:49;10.90;1.00
4564;DHT22;2294;51.818;8.484;2023-05-18T08:45:23;11.10;99.90
4564;DHT22;2294;51.818;8.484;2023-05-18T08:47:55;11.20;1.00
4564;DHT22;2294;51.818;8.484;2023-05-18T08:50:24;11.00;1.00
4564;DHT22;2294;51.818;8.484;2023-05-18T08:52:54;10.90;9.60
4564;DHT22;2294;51.818;8.484;2023-05-18T08:55:24;11.30;99.90
4564;DHT22;2294;51.818;8.484;2023-05-18T08:57:54;10.90;99.90
4564;DHT22;2294;51.818;8.484;2023-05-18T09:00:24;11.40;99.90
4564;DHT22;2294;51.818;8.484;2023-05-18T09:02:52;11.50;99.90
4564;DHT22;2294;51.818;8.484;2023-05-18T09:05:20;11.30;1.00
4564;DHT22;2294;51.818;8.484;2023-05-18T09:07:49;11.00;1.00
4564;DHT22;2294;51.818;8.484;2023-05-18T09:10:17;11.40;1.00
4564;DHT22;2294;51.818;8.484;2023-05-18T09:12:46;11.70;1.00
4564;DHT22;2294;51.818;8.484;2023-05-18T09:15:15;12.00;91.00
4564;DHT22;2294;51.818;8.484;2023-05-18T09:17:43;12.00;1.00
4564;DHT22;2294;51.818;8.484;2023-05-18T09:20:10;11.30;1.00
4564;DHT22;2294;51.818;8.484;2023-05-18T09:22:37;11.60;1.00
4564;DHT22;2294;51.818;8.484;2023-05-18T09:25:07;12.30;1.00
4564;DHT22;2294;51.818;8.484;2023-05-18T09:27:36;12.20;1.00
4564;DHT22;2294;51.818;8.484;2023-05-18T09:30:03;12.00;99.90
4564;DHT22;2294;51.818;8.484;2023-05-18T09:32:33;11.80;99.90
4564;DHT22;2294;51.818;8.484;2023-05-18T09:35:03;11.90;99.90
4564;DHT22;2294;51.818;8.484;2023-05-18T09:37:31;11.90;99.90
4564;DHT22;2294;51.818;8.484;2023-05-18T09:39:59;12.10;1.00
4564;DHT22;2294;51.818;8.484;2023-05-18T09:42:35;12.30;95.40
4564;DHT22;2294;51.818;8.484;2023-05-18T09:45:06;12.00;1.00
4564;DHT22;2294;51.818;8.484;2023-05-18T09:47:40;12.10;1.00
4564;DHT22;2294;51.818;8.484;2023-05-18T09:50:08;12.50;1.00
4564;DHT22;2294;51.818;8.484;2023-05-18T09:52:40;11.70;1.00
4564;DHT22;2294;51.818;8.484;2023-05-18T09:55:08;12.40;1.00
4564;DHT22;2294;51.818;8.484;2023-05-18T09:57:39;12.70;1.00
4564;DHT22;2294;51.818;8.484;2023-05-18T10:00:07;12.40;1.00
4564;DHT22;2294;51.818;8.484;2023-05-18T10:02:38;12.40;1.00
4564;DHT22;2294;51.818;8.484;2023-05-18T10:05:06;12.60;1.00
4564;DHT22;2294;51.818;8.484;2023-05-18T10:07:44;12.50;1.00
4564;DHT22;2294;51.818;8.484;2023-05-18T10:10:11;13.10;1.00
4564;DHT22;2294;51.818;8.484;2023-05-18T10:12:39;12.40;99.90
4564;DHT22;2294;51.818;8.484;2023-05-18T10:15:08;12.70;1.00
4564;DHT22;2294;51.818;8.484;2023-05-18T10:17:36;13.00;1.00
4564;DHT22;2294;51.818;8.484;2023-05-18T10:20:08;12.90;99.90
4564;DHT22;2294;51.818;8.484;2023-05-18T10:22:35;12.90;99.90
4564;DHT22;2294;51.818;8.484;2023-05-18T10:25:04;12.80;99.90
4564;DHT22;2294;51.818;8.484;2023-05-18T10:27:34;12.80;99.90
4564;DHT22;2294;51.818;8.484;2023-05-18T10:30:05;12.60;99.90
4564;DHT22;2294;51.818;8.484;2023-05-18T10:32:35;12.60;99.90
4564;DHT22;2294;51.818;8.484;2023-05-18T10:35:03;12.60;99.90
4564;DHT22;2294;51.818;8.484;2023-05-18T10:37:32;12.80;99.90
4564;DHT22;2294;51.818;8.484;2023-05-18T10:40:02;13.20;99.90
4564;DHT22;2294;51.818;8.484;2023-05-18T10:42:31;12.70;99.90
4564;DHT22;2294;51.818;8.484;2023-05-18T10:44:59;13.10;99.90
4564;DHT22;2294;51.818;8.484;2023-05-18T10:47:28;13.60;99.90
4564;DHT22;2294;51.818;8.484;2023-05-18T10:49:57;14.20;1.00
4564;DHT22;2294;51.818;8.484;2023-05-18T10:52:24;14.80;99.90
4564;DHT22;2294;51.818;8.484;2023-05-18T10:54:57;14.40;99.90
4564;DHT22;2294;51.818;8.484;2023-05-18T10:57:26;14.00;99.90
4564;DHT22;2294;51.818;8.484;2023-05-18T10:59:56;13.80;33.90
4564;DHT22;2294;51.818;8.484;2023-05-18T11:02:24;14.40;99.90
4564;DHT22;2294;51.818;8.484;2023-05-18T11:04:53;14.50;96.40
4564;DHT22;2294;51.818;8.484;2023-05-18T11:07:22;14.50;32.30
4564;DHT22;2294;51.818;8.484;2023-05-18T11:09:49;14.10;1.00
4564;DHT22;2294;51.818;8.484;2023-05-18T11:12:16;13.80;1.00
4564;DHT22;2294;51.818;8.484;2023-05-18T11:14:47;14.40;3.40
4564;DHT22;2294;51.818;8.484;2023-05-18T11:17:17;14.50;1.00
4564;DHT22;2294;51.818;8.484;2023-05-18T11:20:11;15.10;1.00
4564;DHT22;2294;51.818;8.484;2023-05-18T11:22:45;14.70;1.00
4564;DHT22;2294;51.818;8.484;2023-05-18T11:28:21;15.20;1.00
4564;DHT22;2294;51.818;8.484;2023-05-18T11:30:51;15.30;1.00
4564;DHT22;2294;51.818;8.484;2023-05-18T11:33:35;14.50;1.00
4564;DHT22;2294;51.818;8.484;2023-05-18T11:36:10;14.60;1.00
4564;DHT22;2294;51.818;8.484;2023-05-18T11:38:47;14.90;1.00
4564;DHT22;2294;51.818;8.484;2023-05-18T11:41:31;14.70;1.00
4564;DHT22;2294;51.818;8.484;2023-05-18T11:44:13;15.70;1.00
4564;DHT22;2294;51.818;8.484;2023-05-18T11:46:50;16.50;1.00
4564;DHT22;2294;51.818;8.484;2023-05-18T11:49:19;15.50;1.00
4564;DHT22;2294;51.818;8.484;2023-05-18T11:51:56;14.90;1.00
4564;DHT22;2294;51.818;8.484;2023-05-18T11:54:24;15.10;1.00
4564;DHT22;2294;51.818;8.484;2023-05-18T11:56:52;15.20;1.00
4564;DHT22;2294;51.818;8.484;2023-05-18T11:59:30;14.70;1.00
4564;DHT22;2294;51.818;8.484;2023-05-18T12:01:59;15.40;1.00
4564;DHT22;2294;51.818;8.484;2023-05-18T12:04:26;16.00;1.00
4564;DHT22;2294;51.818;8.484;2023-05-18T12:06:56;16.10;1.00
4564;DHT22;2294;51.818;8.484;2023-05-18T12:09:24;15.30;1.00
4564;DHT22;2294;51.818;8.484;2023-05-18T12:11:51;16.10;1.00
4564;DHT22;2294;51.818;8.484;2023-05-18T12:14:18;15.90;1.00
4564;DHT22;2294;51.818;8.484;2023-05-18T12:16:46;16.10;1.00
4564;DHT22;2294;51.818;8.484;2023-05-18T12:19:14;16.30;1.00
4564;DHT22;2294;51.818;8.484;2023-05-18T12:21:41;16.30;1.00
4564;DHT22;2294;51.818;8.484;2023-05-18T12:24:10;17.20;1.00
4564;DHT22;2294;51.818;8.484;2023-05-18T12:26:36;17.70;1.00
4564;DHT22;2294;51.818;8.484;2023-05-18T12:29:05;17.20;1.00
4564;DHT22;2294;51.818;8.484;2023-05-18T12:31:34;17.10;1.00
4564;DHT22;2294;51.818;8.484;2023-05-18T12:34:01;16.10;99.90
4564;DHT22;2294;51.818;8.484;2023-05-18T12:36:29;16.50;1.00
4564;DHT22;2294;51.818;8.484;2023-05-18T12:39:00;17.20;1.00
4564;DHT22;2294;51.818;8.484;2023-05-18T12:41:28;16.90;99.90
4564;DHT22;2294;51.818;8.484;2023-05-18T12:43:55;18.00;99.90
4564;DHT22;2294;51.818;8.484;2023-05-18T12:46:23;18.30;1.00
4564;DHT22;2294;51.818;8.484;2023-05-18T12:48:56;17.80;99.90
4564;DHT22;2294;51.818;8.484;2023-05-18T12:51:24;18.10;99.90
4564;DHT22;2294;51.818;8.484;2023-05-18T12:53:55;18.00;99.90
4564;DHT22;2294;51.818;8.484;2023-05-18T12:56:22;16.90;99.90
4564;DHT22;2294;51.818;8.484;2023-05-18T12:58:56;18.10;99.90
4564;DHT22;2294;51.818;8.484;2023-05-18T13:01:24;18.40;99.90
4564;DHT22;2294;51.818;8.484;2023-05-18T13:03:55;18.60;99.90
4564;DHT22;2294;51.818;8.484;2023-05-18T13:06:23;18.50;99.90
4564;DHT22;2294;51.818;8.484;2023-05-18T13:08:52;18.60;99.90
4564;DHT22;2294;51.818;8.484;2023-05-18T13:11:23;19.20;99.90
4564;DHT22;2294;51.818;8.484;2023-05-18T13:14:00;18.70;99.90
4564;DHT22;2294;51.818;8.484;2023-05-18T13:16:27;17.90;99.90
4564;DHT22;2294;51.818;8.484;2023-05-18T13:18:57;18.70;99.90
4564;DHT22;2294;51.818;8.484;2023-05-18T13:21:25;17.80;99.90
4564;DHT22;2294;51.818;8.484;2023-05-18T13:23:52;17.10;99.90
4564;DHT22;2294;51.818;8.484;2023-05-18T13:26:20;17.60;99.90
4564;DHT22;2294;51.818;8.484;2023-05-18T13:28:49;17.40;99.90
4564;DHT22;2294;51.818;8.484;2023-05-18T13:31:18;18.00;99.90
4564;DHT22;2294;51.818;8.484;2023-05-18T13:33:47;19.00;99.90
4564;DHT22;2294;51.818;8.484;2023-05-18T13:36:15;19.40;99.90
4564;DHT22;2294;51.818;8.484;2023-05-18T13:38:42;18.50;99.90
4564;DHT22;2294;51.818;8.484;2023-05-18T13:41:10;17.50;99.90
4564;DHT22;2294;51.818;8.484;2023-05-18T13:43:39;17.70;99.90
4564;DHT22;2294;51.818;8.484;2023-05-18T13:46:06;17.30;99.90
4564;DHT22;2294;51.818;8.484;2023-05-18T13:48:34;17.50;99.90
4564;DHT22;2294;51.818;8.484;2023-05-18T13:51:02;17.70;99.90
4564;DHT22;2294;51.818;8.484;2023-05-18T13:53:28;17.60;99.90
4564;DHT22;2294;51.818;8.484;2023-05-18T13:55:55;17.90;99.90
4564;DHT22;2294;51.818;8.484;2023-05-18T13:58:22;17.50;99.90
4564;DHT22;2294;51.818;8.484;2023-05-18T14:00:49;17.00;99.90
4564;DHT22;2294;51.818;8.484;2023-05-18T14:03:18;18.60;99.90
4564;DHT22;2294;51.818;8.484;2023-05-18T14:05:46;19.70;99.90
4564;DHT22;2294;51.818;8.484;2023-05-18T14:08:13;20.20;99.90
4564;DHT22;2294;51.818;8.484;2023-05-18T14:10:40;20.80;30.00
4564;DHT22;2294;51.818;8.484;2023-05-18T14:13:07;20.60;9.20
4564;DHT22;2294;51.818;8.484;2023-05-18T14:15:34;20.60;13.60
4564;DHT22;2294;51.818;8.484;2023-05-18T14:18:01;20.50;6.60
4564;DHT22;2294;51.818;8.484;2023-05-18T14:20:28;20.20;5.20
4564;DHT22;2294;51.818;8.484;2023-05-18T14:22:56;19.60;1.00
4564;DHT22;2294;51.818;8.484;2023-05-18T14:25:23;20.90;1.00
4564;DHT22;2294;51.818;8.484;2023-05-18T14:27:50;21.00;1.00
4564;DHT22;2294;51.818;8.484;2023-05-18T14:30:17;21.50;1.00
4564;DHT22;2294;51.818;8.484;2023-05-18T14:32:44;21.90;9.10
4564;DHT22;2294;51.818;8.484;2023-05-18T14:35:11;25.90;9.40
4564;DHT22;2294;51.818;8.484;2023-05-18T14:37:38;22.10;1.00
4564;DHT22;2294;51.818;8.484;2023-05-18T14:40:08;22.00;1.00
4564;DHT22;2294;51.818;8.484;2023-05-18T14:42:35;22.10;1.00
4564;DHT22;2294;51.818;8.484;2023-05-18T14:45:02;22.00;1.00
4564;DHT22;2294;51.818;8.484;2023-05-18T14:47:29;24.80;1.00
4564;DHT22;2294;51.818;8.484;2023-05-18T14:49:56;24.80;1.00
4564;DHT22;2294;51.818;8.484;2023-05-18T14:52:23;27.30;1.00
4564;DHT22;2294;51.818;8.484;2023-05-18T14:54:50;28.20;1.00
4564;DHT22;2294;51.818;8.484;2023-05-18T14:57:18;26.80;1.00
4564;DHT22;2294;51.818;8.484;2023-05-18T14:59:45;28.10;1.00
4564;DHT22;2294;51.818;8.484;2023-05-18T15:02:12;24.50;1.00
4564;DHT22;2294;51.818;8.484;2023-05-18T15:04:39;27.90;1.00
4564;DHT22;2294;51.818;8.484;2023-05-18T15:07:06;28.50;1.00
4564;DHT22;2294;51.818;8.484;2023-05-18T15:09:33;26.60;1.00
4564;DHT22;2294;51.818;8.484;2023-05-18T15:12:00;26.90;1.00
4564;DHT22;2294;51.818;8.484;2023-05-18T15:14:28;28.40;1.00
4564;DHT22;2294;51.818;8.484;2023-05-18T15:16:55;24.10;1.00
4564;DHT22;2294;51.818;8.484;2023-05-18T15:19:23;22.00;1.00
4564;DHT22;2294;51.818;8.484;2023-05-18T15:21:50;25.00;1.00
4564;DHT22;2294;51.818;8.484;2023-05-18T15:24:16;27.80;1.00
4564;DHT22;2294;51.818;8.484;2023-05-18T15:26:44;27.40;1.00
4564;DHT22;2294;51.818;8.484;2023-05-18T15:29:10;26.00;1.00
4564;DHT22;2294;51.818;8.484;2023-05-18T15:31:39;23.50;1.00
4564;DHT22;2294;51.818;8.484;2023-05-18T15:34:05;23.70;1.00
4564;DHT22;2294;51.818;8.484;2023-05-18T15:36:32;21.40;1.00
4564;DHT22;2294;51.818;8.484;2023-05-18T15:39:01;24.10;1.00
4564;DHT22;2294;51.818;8.484;2023-05-18T15:41:31;24.80;1.00
4564;DHT22;2294;51.818;8.484;2023-05-18T15:43:58;26.30;1.00
4564;DHT22;2294;51.818;8.484;2023-05-18T15:46:28;23.40;1.00
4564;DHT22;2294;51.818;8.484;2023-05-18T15:48:58;22.10;1.00
4564;DHT22;2294;51.818;8.484;2023-05-18T15:51:24;24.60;1.00
4564;DHT22;2294;51.818;8.484;2023-05-18T15:53:51;25.70;1.00
4564;DHT22;2294;51.818;8.484;2023-05-18T15:56:18;24.70;1.00
4564;DHT22;2294;51.818;8.484;2023-05-18T15:58:46;23.50;1.00
4564;DHT22;2294;51.818;8.484;2023-05-18T16:01:13;21.50;1.00
4564;DHT22;2294;51.818;8.484;2023-05-18T16:03:40;26.30;1.00
4564;DHT22;2294;51.818;8.484;2023-05-18T16:06:08;28.50;1.00
4564;DHT22;2294;51.818;8.484;2023-05-18T16:08:35;27.20;1.00
4564;DHT22;2294;51.818;8.484;2023-05-18T16:11:02;25.80;1.00
4564;DHT22;2294;51.818;8.484;2023-05-18T16:13:29;28.10;1.00
4564;DHT22;2294;51.818;8.484;2023-05-18T16:15:56;28.60;1.00
4564;DHT22;2294;51.818;8.484;2023-05-18T16:18:23;28.20;1.00
4564;DHT22;2294;51.818;8.484;2023-05-18T16:20:50;25.10;1.00
4564;DHT22;2294;51.818;8.484;2023-05-18T16:23:19;25.10;1.00
4564;DHT22;2294;51.818;8.484;2023-05-18T16:25:46;27.10;1.00
4564;DHT22;2294;51.818;8.484;2023-05-18T16:28:13;27.80;1.00
4564;DHT22;2294;51.818;8.484;2023-05-18T16:30:39;28.40;1.00
4564;DHT22;2294;51.818;8.484;2023-05-18T16:33:06;28.60;1.00
4564;DHT22;2294;51.818;8.484;2023-05-18T16:35:33;27.60;1.00
4564;DHT22;2294;51.818;8.484;2023-05-18T16:38:00;25.80;1.00
4564;DHT22;2294;51.818;8.484;2023-05-18T16:40:28;26.40;1.00
4564;DHT22;2294;51.818;8.484;2023-05-18T16:42:55;26.20;1.00
4564;DHT22;2294;51.818;8.484;2023-05-18T16:45:22;27.20;1.00
4564;DHT22;2294;51.818;8.484;2023-05-18T16:47:49;29.00;1.00
4564;DHT22;2294;51.818;8.484;2023-05-18T16:50:16;27.30;1.00
4564;DHT22;2294;51.818;8.484;2023-05-18T16:52:43;28.00;1.00
4564;DHT22;2294;51.818;8.484;2023-05-18T16:55:09;28.20;1.00
4564;DHT22;2294;51.818;8.484;2023-05-18T16:57:38;28.60;1.00
4564;DHT22;2294;51.818;8.484;2023-05-18T17:00:08;27.80;1.00
4564;DHT22;2294;51.818;8.484;2023-05-18T17:02:36;25.30;1.00
4564;DHT22;2294;51.818;8.484;2023-05-18T17:05:03;23.00;1.00
4564;DHT22;2294;51.818;8.484;2023-05-18T17:07:31;21.80;1.00
4564;DHT22;2294;51.818;8.484;2023-05-18T17:09:58;21.30;1.00
4564;DHT22;2294;51.818;8.484;2023-05-18T17:12:25;21.20;1.00
4564;DHT22;2294;51.818;8.484;2023-05-18T17:14:53;20.90;1.00
4564;DHT22;2294;51.818;8.484;2023-05-18T17:17:20;20.20;1.00
4564;DHT22;2294;51.818;8.484;2023-05-18T17:19:47;20.20;1.00
4564;DHT22;2294;51.818;8.484;2023-05-18T17:22:14;20.10;1.00
4564;DHT22;2294;51.818;8.484;2023-05-18T17:24:41;20.00;1.00
4564;DHT22;2294;51.818;8.484;2023-05-18T17:27:07;19.30;1.00
4564;DHT22;2294;51.818;8.484;2023-05-18T17:29:34;19.50;1.00
4564;DHT22;2294;51.818;8.484;2023-05-18T17:32:03;18.70;1.00
4564;DHT22;2294;51.818;8.484;2023-05-18T17:34:30;19.00;1.00
4564;DHT22;2294;51.818;8.484;2023-05-18T17:36:57;18.80;1.00
4564;DHT22;2294;51.818;8.484;2023-05-18T17:39:24;18.90;1.00
4564;DHT22;2294;51.818;8.484;2023-05-18T17:41:51;18.50;1.00
4564;DHT22;2294;51.818;8.484;2023-05-18T17:44:20;18.30;1.00
4564;DHT22;2294;51.818;8.484;2023-05-18T17:46:46;18.30;1.00
4564;DHT22;2294;51.818;8.484;2023-05-18T17:49:15;18.40;1.00
4564;DHT22;2294;51.818;8.484;2023-05-18T17:51:42;18.10;1.00
4564;DHT22;2294;51.818;8.484;2023-05-18T17:54:09;18.10;1.00
4564;DHT22;2294;51.818;8.484;2023-05-18T17:56:36;18.50;1.00
4564;DHT22;2294;51.818;8.484;2023-05-18T17:59:04;18.30;1.00
4564;DHT22;2294;51.818;8.484;2023-05-18T18:01:32;17.80;1.00
4564;DHT22;2294;51.818;8.484;2023-05-18T18:03:59;17.70;1.00
4564;DHT22;2294;51.818;8.484;2023-05-18T18:06:28;17.30;1.00
4564;DHT22;2294;51.818;8.484;2023-05-18T18:08:57;17.50;1.00
4564;DHT22;2294;51.818;8.484;2023-05-18T18:11:24;16.90;1.00
4564;DHT22;2294;51.818;8.484;2023-05-18T18:13:51;17.00;1.00
4564;DHT22;2294;51.818;8.484;2023-05-18T18:16:19;17.00;1.00
4564;DHT22;2294;51.818;8.484;2023-05-18T18:18:46;17.00;1.00
4564;DHT22;2294;51.818;8.484;2023-05-18T18:21:13;17.00;1.00
4564;DHT22;2294;51.818;8.484;2023-05-18T18:23:41;16.70;1.00
4564;DHT22;2294;51.818;8.484;2023-05-18T18:26:08;16.70;1.00
4564;DHT22;2294;51.818;8.484;2023-05-18T18:28:35;16.60;1.00
4564;DHT22;2294;51.818;8.484;2023-05-18T18:31:02;16.90;1.00
4564;DHT22;2294;51.818;8.484;2023-05-18T18:33:30;16.70;1.00
4564;DHT22;2294;51.818;8.484;2023-05-18T18:35:57;16.50;1.00
4564;DHT22;2294;51.818;8.484;2023-05-18T18:38:24;16.40;1.00
4564;DHT22;2294;51.818;8.484;2023-05-18T18:40:54;16.10;1.00
4564;DHT22;2294;51.818;8.484;2023-05-18T18:43:26;16.00;1.00
4564;DHT22;2294;51.818;8.484;2023-05-18T18:45:53;16.10;1.00
4564;DHT22;2294;51.818;8.484;2023-05-18T18:48:21;15.80;1.00
4564;DHT22;2294;51.818;8.484;2023-05-18T18:50:48;15.50;1.00
4564;DHT22;2294;51.818;8.484;2023-05-18T18:53:15;15.40;1.00
4564;DHT22;2294;51.818;8.484;2023-05-18T18:55:42;15.30;12.40
4564;DHT22;2294;51.818;8.484;2023-05-18T18:58:10;15.50;1.00
4564;DHT22;2294;51.818;8.484;2023-05-18T19:00:37;15.20;3.00
4564;DHT22;2294;51.818;8.484;2023-05-18T19:03:04;15.30;1.40
4564;DHT22;2294;51.818;8.484;2023-05-18T19:05:31;15.10;21.50
4564;DHT22;2294;51.818;8.484;2023-05-18T19:07:58;15.10;47.20
4564;DHT22;2294;51.818;8.484;2023-05-18T19:10:26;14.90;58.10
4564;DHT22;2294;51.818;8.484;2023-05-18T19:12:53;14.70;91.10
4564;DHT22;2294;51.818;8.484;2023-05-18T19:15:25;14.80;99.90
4564;DHT22;2294;51.818;8.484;2023-05-18T19:17:52;14.70;99.90
4564;DHT22;2294;51.818;8.484;2023-05-18T19:20:19;14.40;99.90
4564;DHT22;2294;51.818;8.484;2023-05-18T19:22:46;14.60;99.90
4564;DHT22;2294;51.818;8.484;2023-05-18T19:25:13;14.50;99.90
4564;DHT22;2294;51.818;8.484;2023-05-18T19:27:40;14.30;99.90
4564;DHT22;2294;51.818;8.484;2023-05-18T19:30:08;14.00;99.90
4564;DHT22;2294;51.818;8.484;2023-05-18T19:32:38;13.80;99.90
4564;DHT22;2294;51.818;8.484;2023-05-18T19:35:05;13.60;99.90
4564;DHT22;2294;51.818;8.484;2023-05-18T19:37:32;13.70;99.90
4564;DHT22;2294;51.818;8.484;2023-05-18T19:39:59;13.70;99.90
4564;DHT22;2294;51.818;8.484;2023-05-18T19:42:26;13.60;1.00
4564;DHT22;2294;51.818;8.484;2023-05-18T19:44:53;13.60;1.00
4564;DHT22;2294;51.818;8.484;2023-05-18T19:47:19;13.40;1.00
4564;DHT22;2294;51.818;8.484;2023-05-18T19:49:48;13.50;1.00
4564;DHT22;2294;51.818;8.484;2023-05-18T19:52:15;13.20;1.00
4564;DHT22;2294;51.818;8.484;2023-05-18T19:54:42;13.20;1.00
4564;DHT22;2294;51.818;8.484;2023-05-18T19:57:09;13.10;1.00
4564;DHT22;2294;51.818;8.484;2023-05-18T19:59:36;13.00;1.00
4564;DHT22;2294;51.818;8.484;2023-05-18T20:02:03;12.90;1.00
4564;DHT22;2294;51.818;8.484;2023-05-18T20:04:30;13.00;1.00
4564;DHT22;2294;51.818;8.484;2023-05-18T20:07:00;12.90;1.00
4564;DHT22;2294;51.818;8.484;2023-05-18T20:09:27;12.80;1.00
4564;DHT22;2294;51.818;8.484;2023-05-18T20:11:55;12.90;1.00
4564;DHT22;2294;51.818;8.484;2023-05-18T20:14:22;13.10;1.00
4564;DHT22;2294;51.818;8.484;2023-05-18T20:16:49;12.90;1.00
4564;DHT22;2294;51.818;8.484;2023-05-18T20:19:16;12.80;15.90
4564;DHT22;2294;51.818;8.484;2023-05-18T20:21:44;12.50;34.40
4564;DHT22;2294;51.818;8.484;2023-05-18T20:24:13;12.50;99.90
4564;DHT22;2294;51.818;8.484;2023-05-18T20:26:40;12.60;99.90
4564;DHT22;2294;51.818;8.484;2023-05-18T20:29:07;12.80;99.90
4564;DHT22;2294;51.818;8.484;2023-05-18T20:31:34;12.80;99.90
4564;DHT22;2294;51.818;8.484;2023-05-18T20:34:01;12.60;99.90
4564;DHT22;2294;51.818;8.484;2023-05-18T20:36:28;12.60;99.90
4564;DHT22;2294;51.818;8.484;2023-05-18T20:38:56;12.50;99.90
4564;DHT22;2294;51.818;8.484;2023-05-18T20:41:24;12.50;99.90
4564;DHT22;2294;51.818;8.484;2023-05-18T20:43:52;12.50;99.90
4564;DHT22;2294;51.818;8.484;2023-05-18T20:46:19;12.40;99.90
4564;DHT22;2294;51.818;8.484;2023-05-18T20:48:48;12.40;99.90
4564;DHT22;2294;51.818;8.484;2023-05-18T20:51:17;12.30;99.90
4564;DHT22;2294;51.818;8.484;2023-05-18T20:53:44;12.40;99.90
4564;DHT22;2294;51.818;8.484;2023-05-18T20:56:11;12.30;99.90
4564;DHT22;2294;51.818;8.484;2023-05-18T20:58:41;12.20;1.00
4564;DHT22;2294;51.818;8.484;2023-05-18T21:01:13;12.10;99.90
4564;DHT22;2294;51.818;8.484;2023-05-18T21:03:40;12.10;1.00
4564;DHT22;2294;51.818;8.484;2023-05-18T21:06:09;12.10;99.90
4564;DHT22;2294;51.818;8.484;2023-05-18T21:08:37;12.10;99.90
4564;DHT22;2294;51.818;8.484;2023-05-18T21:11:04;12.20;99.90
4564;DHT22;2294;51.818;8.484;2023-05-18T21:13:31;12.00;1.00
4564;DHT22;2294;51.818;8.484;2023-05-18T21:16:01;11.90;1.00
4564;DHT22;2294;51.818;8.484;2023-05-18T21:18:31;11.80;1.00
4564;DHT22;2294;51.818;8.484;2023-05-18T21:20:59;11.90;1.00
4564;DHT22;2294;51.818;8.484;2023-05-18T21:23:26;11.80;1.00
4564;DHT22;2294;51.818;8.484;2023-05-18T21:25:53;11.80;1.00
4564;DHT22;2294;51.818;8.484;2023-05-18T21:28:20;11.70;1.00
4564;DHT22;2294;51.818;8.484;2023-05-18T21:30:49;11.50;99.90
4564;DHT22;2294;51.818;8.484;2023-05-18T21:33:18;11.60;94.30
4564;DHT22;2294;51.818;8.484;2023-05-18T21:35:44;11.60;1.00
4564;DHT22;2294;51.818;8.484;2023-05-18T21:38:11;11.50;1.00
4564;DHT22;2294;51.818;8.484;2023-05-18T21:40:38;11.40;1.00
4564;DHT22;2294;51.818;8.484;2023-05-18T21:43:06;11.40;99.90
4564;DHT22;2294;51.818;8.484;2023-05-18T21:45:33;11.40;99.90
4564;DHT22;2294;51.818;8.484;2023-05-18T21:48:00;11.40;99.90
4564;DHT22;2294;51.818;8.484;2023-05-18T21:50:28;11.10;99.90
4564;DHT22;2294;51.818;8.484;2023-05-18T21:52:58;11.20;99.90
4564;DHT22;2294;51.818;8.484;2023-05-18T21:55:25;11.10;99.90